createdAt,value
2023-01-15T00:02:18.893Z,98555.69
2023-01-15T00:04:46.645Z,98558.28
2023-01-15T00:07:13.727Z,98565.28
2023-01-15T00:09:40.512Z,98566.13
2023-01-15T00:12:07.248Z,98565.25
2023-01-15T00:14:33.986Z,98562.56
2023-01-15T00:17:00.470Z,98562.56
2023-01-15T00:19:26.955Z,98559.91
2023-01-15T00:21:54.111Z,98564.28
2023-01-15T00:24:39.939Z,98563.38
2023-01-15T00:27:24.891Z,98558.16
2023-01-15T00:29:51.328Z,98569.56
2023-01-15T00:32:17.797Z,98572.22
2023-01-15T00:34:44.331Z,98572.22
2023-01-15T00:37:10.857Z,98567.84
2023-01-15T00:39:37.445Z,98566.06
2023-01-15T00:42:04.110Z,98550.22
2023-01-15T00:44:33.579Z,98557.28
2023-01-15T00:47:00.429Z,98555.50
2023-01-15T00:49:26.935Z,98601.28
2023-01-15T00:51:53.482Z,98622.56
2023-01-15T00:54:20.069Z,98611.41
2023-01-15T00:56:46.896Z,98624.81
2023-01-15T00:59:13.545Z,98635.53
2023-01-15T01:01:40.417Z,98648.09
2023-01-15T01:04:07.074Z,98657.16
2023-01-15T01:06:34.917Z,98660.06
2023-01-15T01:09:01.621Z,98657.63
2023-01-15T01:11:34.183Z,98663.09
2023-01-15T01:14:02.458Z,98686.13
2023-01-15T01:16:37.637Z,98691.53
2023-01-15T01:19:16.265Z,98701.25
2023-01-15T01:21:45.267Z,98716.22
2023-01-15T01:24:14.100Z,98719.75
2023-01-15T01:26:41.280Z,98713.63
2023-01-15T01:29:07.866Z,98723.28
2023-01-15T01:31:34.403Z,98745.22
2023-01-15T01:34:01.174Z,98735.63
2023-01-15T01:36:30.941Z,98747.88
2023-01-15T01:38:58.841Z,98741.75
2023-01-15T01:41:26.149Z,98755.75
2023-01-15T01:44:00.644Z,98753.13
2023-01-15T01:46:29.429Z,98757.50
2023-01-15T01:49:02.364Z,98774.16
2023-01-15T01:51:35.704Z,98779.41
2023-01-15T01:54:03.137Z,98791.69
2023-01-15T01:56:33.604Z,98803.91
2023-01-15T01:59:00.406Z,98809.13
2023-01-15T02:01:27.151Z,98799.47
2023-01-15T02:03:54.036Z,98800.34
2023-01-15T02:06:22.901Z,98803.81
2023-01-15T02:08:51.886Z,98795.00
2023-01-15T02:11:24.577Z,98804.63
2023-01-15T02:14:03.109Z,98796.72
2023-01-15T02:16:45.608Z,98797.56
2023-01-15T02:19:40.227Z,98798.44
2023-01-15T02:22:21.733Z,98794.94
2023-01-15T02:24:54.214Z,98792.28
2023-01-15T02:27:24.630Z,98794.00
2023-01-15T02:30:06.641Z,98805.34
2023-01-15T02:32:51.693Z,98799.22
2023-01-15T02:35:25.546Z,98798.31
2023-01-15T02:37:57.639Z,98796.53
2023-01-15T02:40:26.887Z,98805.28
2023-01-15T02:42:55.213Z,98800.91
2023-01-15T02:45:27.091Z,98811.38
2023-01-15T02:48:02.270Z,98814.84
2023-01-15T02:50:36.560Z,98808.69
2023-01-15T02:53:10.197Z,98822.63
2023-01-15T02:55:43.879Z,98834.84
2023-01-15T02:58:16.537Z,98824.34
2023-01-15T03:00:49.472Z,98819.06
2023-01-15T03:04:07.607Z,98821.69
2023-01-15T03:06:49.693Z,98817.28
2023-01-15T03:09:18.892Z,98809.47
2023-01-15T03:11:54.027Z,98815.56
2023-01-15T03:14:29.358Z,98799.88
2023-01-15T03:17:01.564Z,98813.00
2023-01-15T03:19:43.188Z,98809.50
2023-01-15T03:22:41.962Z,98807.81
2023-01-15T03:25:21.631Z,98792.09
2023-01-15T03:27:55.190Z,98796.44
2023-01-15T03:30:24.124Z,98786.84
2023-01-15T03:32:54.011Z,98785.09
2023-01-15T03:35:43.738Z,98781.59
2023-01-15T03:38:14.102Z,98787.75
2023-01-15T03:40:53.577Z,98775.53
2023-01-15T03:43:42.994Z,98781.66
2023-01-15T03:46:35.917Z,98774.69
2023-01-15T03:49:12.929Z,98773.78
2023-01-15T03:52:19.024Z,98769.44
2023-01-15T03:54:53.461Z,98766.81
2023-01-15T03:57:48.199Z,98780.78
2023-01-15T04:00:30.582Z,98774.69
2023-01-15T04:03:01.638Z,98779.09
2023-01-15T04:05:32.332Z,98773.84
2023-01-15T04:08:00.134Z,98778.19
2023-01-15T04:10:28.158Z,98761.63
2023-01-15T04:12:56.519Z,98752.88
2023-01-15T04:15:23.201Z,98755.50
2023-01-15T04:17:49.741Z,98765.13
2023-01-15T04:20:17.076Z,98757.25
2023-01-15T04:22:44.971Z,98746.78
2023-01-15T04:25:11.602Z,98738.91
2023-01-15T04:27:38.685Z,98731.94
2023-01-15T04:30:05.695Z,98746.81
2023-01-15T04:32:32.324Z,98731.97
2023-01-15T04:34:58.939Z,98741.56
2023-01-15T04:37:25.429Z,98731.09
2023-01-15T04:39:52.396Z,98726.72
2023-01-15T04:42:48.091Z,98731.13
2023-01-15T04:45:14.596Z,98727.63
2023-01-15T04:47:41.072Z,98725.00
2023-01-15T04:50:08.416Z,98721.47
2023-01-15T04:52:35.117Z,98713.63
2023-01-15T04:55:01.633Z,98716.28
2023-01-15T04:57:28.212Z,98708.41
2023-01-15T04:59:54.788Z,98700.53
2023-01-15T05:02:21.547Z,98700.53
2023-01-15T05:04:48.494Z,98697.91
2023-01-15T05:07:15.194Z,98698.78
2023-01-15T05:09:41.789Z,98704.88
2023-01-15T05:12:08.860Z,98697.03
2023-01-15T05:14:35.381Z,98704.91
2023-01-15T05:17:01.995Z,98703.16
2023-01-15T05:19:28.485Z,98693.56
2023-01-15T05:21:54.972Z,98698.78
2023-01-15T05:24:21.440Z,98696.16
2023-01-15T05:26:47.991Z,98698.78
2023-01-15T05:29:15.748Z,98707.50
2023-01-15T05:31:45.012Z,98696.16
2023-01-15T05:34:12.657Z,98704.91
2023-01-15T05:36:39.876Z,98709.28
2023-01-15T05:39:07.032Z,98698.78
2023-01-15T05:41:48.901Z,98705.78
2023-01-15T05:44:16.616Z,98702.31
2023-01-15T05:46:44.904Z,98698.78
2023-01-15T05:49:14.456Z,98698.78
2023-01-15T05:51:41.570Z,98701.38
2023-01-15T05:54:11.083Z,98693.50
2023-01-15T05:56:38.464Z,98707.50
2023-01-15T05:59:06.147Z,98704.00
2023-01-15T06:01:33.049Z,98691.78
2023-01-15T06:04:04.519Z,98702.28
2023-01-15T06:06:31.310Z,98707.50
2023-01-15T06:08:58.357Z,98708.41
2023-01-15T06:11:25.357Z,98704.00
2023-01-15T06:13:51.900Z,98708.41
2023-01-15T06:16:19.011Z,98710.13
2023-01-15T06:18:46.058Z,98704.00
2023-01-15T06:21:14.580Z,98704.00
2023-01-15T06:23:42.045Z,98716.25
2023-01-15T06:26:13.291Z,98725.88
2023-01-15T06:28:40.509Z,98733.75
2023-01-15T06:31:08.804Z,98741.59
2023-01-15T06:33:36.010Z,98745.13
2023-01-15T06:36:04.872Z,98746.84
2023-01-15T06:38:31.528Z,98739.88
2023-01-15T06:40:59.893Z,98745.97
2023-01-15T06:43:45.291Z,98748.59
2023-01-15T06:46:31.440Z,98756.44
2023-01-15T06:48:57.937Z,98743.34
2023-01-15T06:51:25.216Z,98752.94
2023-01-15T06:53:51.829Z,98747.69
2023-01-15T06:56:18.461Z,98740.69
2023-01-15T06:58:45.099Z,98734.56
2023-01-15T07:01:15.359Z,98739.81
2023-01-15T07:03:42.150Z,98748.56
2023-01-15T07:06:10.453Z,98744.19
2023-01-15T07:08:37.464Z,98742.41
2023-01-15T07:11:05.683Z,98739.81
2023-01-15T07:13:32.905Z,98737.19
2023-01-15T07:16:01.192Z,98740.66
2023-01-15T07:18:29.561Z,98744.16
2023-01-15T07:20:57.444Z,98744.16
2023-01-15T07:23:25.999Z,98733.69
2023-01-15T07:25:53.726Z,98724.97
2023-01-15T07:28:21.717Z,98735.44
2023-01-15T07:30:48.523Z,98738.06
2023-01-15T07:33:15.351Z,98739.81
2023-01-15T07:35:42.239Z,98745.03
2023-01-15T07:38:08.853Z,98734.56
2023-01-15T07:40:35.307Z,98732.81
2023-01-15T07:43:20.505Z,98745.06
2023-01-15T07:46:06.827Z,98750.31
2023-01-15T07:48:51.889Z,98744.22
2023-01-15T07:51:18.435Z,98746.84
2023-01-15T07:53:44.911Z,98752.97
2023-01-15T07:56:11.586Z,98738.97
2023-01-15T07:58:38.122Z,98740.72
2023-01-15T08:01:04.825Z,98752.09
2023-01-15T08:03:31.357Z,98736.38
2023-01-15T08:05:58.195Z,98758.25
2023-01-15T08:08:24.627Z,98767.88
2023-01-15T08:11:09.826Z,98763.50
2023-01-15T08:13:55.104Z,98766.13
2023-01-15T08:16:21.669Z,98761.75
2023-01-15T08:18:48.226Z,98765.25
2023-01-15T08:21:16.376Z,98766.22
2023-01-15T08:23:43.593Z,98764.47
2023-01-15T08:26:10.132Z,98761.84
2023-01-15T08:28:36.756Z,98763.59
2023-01-15T08:31:05.761Z,98763.59
2023-01-15T08:33:33.165Z,98770.59
2023-01-15T08:35:59.652Z,98751.34
2023-01-15T08:38:26.223Z,98764.50
2023-01-15T08:40:59.098Z,98763.59
2023-01-15T08:43:30.275Z,98774.13
2023-01-15T08:45:58.522Z,98775.84
2023-01-15T08:48:26.493Z,98774.13
2023-01-15T08:50:53.245Z,98767.13
2023-01-15T08:53:20.389Z,98778.50
2023-01-15T08:55:48.633Z,98768.00
2023-01-15T08:58:15.730Z,98765.38
2023-01-15T09:00:42.300Z,98761.91
2023-01-15T09:03:09.147Z,98752.28
2023-01-15T09:05:37.844Z,98756.63
2023-01-15T09:08:05.872Z,98751.41
2023-01-15T09:10:33.085Z,98756.66
2023-01-15T09:13:03.937Z,98752.25
2023-01-15T09:15:33.144Z,98761.03
2023-01-15T09:18:00.590Z,98762.75
2023-01-15T09:20:27.314Z,98782.88
2023-01-15T09:22:53.976Z,98778.53
2023-01-15T09:25:23.869Z,98781.16
2023-01-15T09:27:50.856Z,98787.25
2023-01-15T09:30:20.489Z,98783.75
2023-01-15T09:32:47.637Z,98786.38
2023-01-15T09:35:14.775Z,98786.38
2023-01-15T09:37:41.708Z,98786.38
2023-01-15T09:40:18.962Z,98783.75
2023-01-15T09:42:56.860Z,98810.88
2023-01-15T09:45:36.764Z,98802.16
2023-01-15T09:48:25.145Z,98792.50
2023-01-15T09:51:02.027Z,98796.88
2023-01-15T09:53:45.768Z,98802.13
2023-01-15T09:56:20.647Z,98804.75
2023-01-15T09:58:47.655Z,98808.25
2023-01-15T10:01:19.587Z,98797.78
2023-01-15T10:04:11.394Z,98795.16
2023-01-15T10:07:08.031Z,98800.38
2023-01-15T10:09:39.293Z,98798.66
2023-01-15T10:12:35.794Z,98790.78
2023-01-15T10:15:27.820Z,98790.78
2023-01-15T10:17:57.853Z,98785.53
2023-01-15T10:20:49.688Z,98784.66
2023-01-15T10:23:32.198Z,98789.94
2023-01-15T10:26:12.305Z,98787.28
2023-01-15T10:28:48.629Z,98789.03
2023-01-15T10:31:21.158Z,98810.91
2023-01-15T10:34:25.801Z,98832.81
2023-01-15T10:37:24.861Z,98795.16
2023-01-15T10:40:19.526Z,98789.88
2023-01-15T10:42:59.435Z,98798.63
2023-01-15T10:45:30.077Z,98796.00
2023-01-15T10:48:11.975Z,98785.50
2023-01-15T10:50:38.697Z,98801.25
2023-01-15T10:53:15.972Z,98812.63
2023-01-15T10:55:51.507Z,98813.50
2023-01-15T10:58:29.911Z,98803.88
2023-01-15T11:01:08.961Z,98821.38
2023-01-15T11:03:41.765Z,98817.91
2023-01-15T11:06:14.942Z,98820.53
2023-01-15T11:09:08.651Z,98807.41
2023-01-15T11:12:15.500Z,98814.41
2023-01-15T11:15:02.652Z,98814.38
2023-01-15T11:18:21.421Z,98790.72
2023-01-15T11:20:49.340Z,98806.44
2023-01-15T11:23:21.410Z,98798.53
2023-01-15T11:26:00.432Z,98801.13
2023-01-15T11:28:32.691Z,98799.38
2023-01-15T11:30:59.538Z,98801.09
2023-01-15T11:33:28.655Z,98797.59
2023-01-15T11:35:58.550Z,98811.59
2023-01-15T11:38:31.396Z,98806.34
2023-01-15T11:41:01.478Z,98802.88
2023-01-15T11:43:49.287Z,98808.97
2023-01-15T11:46:49.748Z,98810.81
2023-01-15T11:49:37.289Z,98803.81
2023-01-15T11:52:08.616Z,98786.34
2023-01-15T11:54:41.203Z,98785.47
2023-01-15T11:57:08.889Z,98761.84
2023-01-15T11:59:37.170Z,98778.47
2023-01-15T12:02:41.739Z,98794.25
2023-01-15T12:05:17.513Z,98799.50
2023-01-15T12:07:45.418Z,98799.53
2023-01-15T12:10:15.019Z,98799.50
2023-01-15T12:12:52.787Z,98803.03
2023-01-15T12:15:51.587Z,98793.41
2023-01-15T12:18:36.907Z,98784.69
2023-01-15T12:21:29.408Z,98783.78
2023-01-15T12:24:25.062Z,98784.66
2023-01-15T12:27:14.165Z,98783.78
2023-01-15T12:29:50.055Z,98782.91
2023-01-15T12:32:20.742Z,98783.75
2023-01-15T12:34:58.377Z,98785.47
2023-01-15T12:37:56.789Z,98787.19
2023-01-15T12:40:47.968Z,98788.00
2023-01-15T12:43:42.358Z,98786.22
2023-01-15T12:46:14.952Z,98801.13
2023-01-15T12:48:49.522Z,98779.16
2023-01-15T12:51:26.389Z,98784.41
2023-01-15T12:54:01.570Z,98784.44
2023-01-15T12:56:37.322Z,98782.69
2023-01-15T12:59:24.510Z,98804.56
2023-01-15T13:01:53.754Z,98811.63
2023-01-15T13:04:39.288Z,98786.16
2023-01-15T13:07:19.477Z,98809.84
2023-01-15T13:09:55.464Z,98801.94
2023-01-15T13:12:22.111Z,98804.59
2023-01-15T13:14:50.670Z,98785.31
2023-01-15T13:17:30.694Z,98803.72
2023-01-15T13:20:12.371Z,98784.41
2023-01-15T13:22:53.265Z,98817.75
2023-01-15T13:25:46.533Z,98793.19
2023-01-15T13:28:31.819Z,98793.16
2023-01-15T13:31:24.535Z,98779.13
2023-01-15T13:33:55.590Z,98791.44
2023-01-15T13:36:29.177Z,98791.44
2023-01-15T13:39:01.125Z,98793.22
2023-01-15T13:41:49.616Z,98796.72
2023-01-15T13:44:21.945Z,98809.88
2023-01-15T13:47:09.372Z,98800.25
2023-01-15T13:49:40.236Z,98796.75
2023-01-15T13:52:17.921Z,98801.16
2023-01-15T13:54:44.683Z,98801.16
2023-01-15T13:57:24.276Z,98809.94
2023-01-15T13:59:50.884Z,98810.81
2023-01-15T14:02:28.262Z,98809.06
2023-01-15T14:04:55.380Z,98813.44
2023-01-15T14:07:33.175Z,98806.44
2023-01-15T14:10:30.603Z,98806.41
2023-01-15T14:13:12.335Z,98781.88
2023-01-15T14:15:57.003Z,98807.28
2023-01-15T14:18:58.759Z,98808.19
2023-01-15T14:21:40.646Z,98812.56
2023-01-15T14:24:16.053Z,98808.16
2023-01-15T14:26:57.098Z,98798.53
2023-01-15T14:30:05.813Z,98797.66
2023-01-15T14:33:04.715Z,98804.66
2023-01-15T14:35:37.263Z,98803.78
2023-01-15T14:38:12.499Z,98820.47
2023-01-15T14:40:52.814Z,98805.56
2023-01-15T14:43:22.452Z,98808.19
2023-01-15T14:45:50.293Z,98818.72
2023-01-15T14:48:29.062Z,98788.91
2023-01-15T14:51:14.701Z,98805.53
2023-01-15T14:54:07.949Z,98775.75
2023-01-15T14:56:37.808Z,98811.72
2023-01-15T14:59:28.667Z,98816.97
2023-01-15T15:02:00.494Z,98814.38
2023-01-15T15:04:39.398Z,98822.25
2023-01-15T15:07:10.513Z,98825.78
2023-01-15T15:09:44.172Z,98819.63
2023-01-15T15:12:29.737Z,98814.38
2023-01-15T15:15:11.293Z,98825.75
2023-01-15T15:18:09.788Z,98831.00
2023-01-15T15:21:03.493Z,98824.88
2023-01-15T15:23:42.490Z,98827.50
2023-01-15T15:26:33.265Z,98824.91
2023-01-15T15:29:05.861Z,98825.75
2023-01-15T15:31:57.122Z,98817.00
2023-01-15T15:34:47.135Z,98838.88
2023-01-15T15:37:27.497Z,98822.25
2023-01-15T15:40:05.924Z,98838.03
2023-01-15T15:42:58.650Z,98845.03
2023-01-15T15:45:49.359Z,98831.88
2023-01-15T15:48:42.903Z,98838.91
2023-01-15T15:51:30.719Z,98843.28
2023-01-15T15:54:18.010Z,98838.88
2023-01-15T15:56:50.414Z,98829.28
2023-01-15T15:59:24.279Z,98824.88
2023-01-15T16:01:50.950Z,98827.50
2023-01-15T16:04:20.272Z,98832.78
2023-01-15T16:06:48.895Z,98832.78
2023-01-15T16:09:21.333Z,98826.63
2023-01-15T16:11:49.649Z,98838.03
2023-01-15T16:14:18.459Z,98836.28
2023-01-15T16:16:46.877Z,98838.91
2023-01-15T16:19:21.350Z,98842.41
2023-01-15T16:21:49.077Z,98825.78
2023-01-15T16:24:28.098Z,98836.31
2023-01-15T16:26:59.351Z,98834.56
2023-01-15T16:29:29.653Z,98838.94
2023-01-15T16:31:58.832Z,98824.91
2023-01-15T16:34:29.531Z,98851.22
2023-01-15T16:36:56.588Z,98840.72
2023-01-15T16:39:32.187Z,98858.22
2023-01-15T16:42:02.194Z,98854.72
2023-01-15T16:45:03.918Z,98861.72
2023-01-15T16:47:35.967Z,98852.09
2023-01-15T16:50:24.375Z,98860.88
2023-01-15T16:52:55.550Z,98871.38
2023-01-15T16:55:34.833Z,98859.09
2023-01-15T16:58:13.273Z,98861.72
2023-01-15T17:00:48.291Z,98853.84
2023-01-15T17:03:24.734Z,98868.75
2023-01-15T17:06:01.530Z,98855.63
2023-01-15T17:08:38.687Z,98867.00
2023-01-15T17:11:17.453Z,98861.72
2023-01-15T17:13:44.956Z,98855.59
2023-01-15T17:16:22.713Z,98871.38
2023-01-15T17:18:51.057Z,98881.03
2023-01-15T17:21:21.725Z,98874.88
2023-01-15T17:23:48.458Z,98872.25
2023-01-15T17:26:20.956Z,98885.38
2023-01-15T17:28:47.986Z,98874.88
2023-01-15T17:31:28.325Z,98886.25
2023-01-15T17:33:55.424Z,98879.25
2023-01-15T17:36:22.267Z,98873.97
2023-01-15T17:38:48.913Z,98881.88
2023-01-15T17:41:17.383Z,98892.41
2023-01-15T17:43:44.119Z,98877.53
2023-01-15T17:46:10.811Z,98887.13
2023-01-15T17:48:37.389Z,98892.41
2023-01-15T17:51:06.776Z,98893.25
2023-01-15T17:53:35.923Z,98902.06
2023-01-15T17:56:22.262Z,98895.03
2023-01-15T17:59:07.561Z,98899.41
2023-01-15T18:01:58.603Z,98890.63
2023-01-15T18:05:04.326Z,98886.25
2023-01-15T18:07:39.282Z,98896.78
2023-01-15T18:10:09.233Z,98900.28
2023-01-15T18:12:35.886Z,98899.41
2023-01-15T18:15:02.363Z,98910.81
2023-01-15T18:17:31.224Z,98905.53
2023-01-15T18:19:57.802Z,98914.31
2023-01-15T18:22:24.394Z,98902.91
2023-01-15T18:24:50.963Z,98903.81
2023-01-15T18:27:17.586Z,98907.28
2023-01-15T18:29:44.227Z,98912.53
2023-01-15T18:32:10.744Z,98909.91
2023-01-15T18:34:37.736Z,98902.91
2023-01-15T18:37:04.984Z,98909.06
2023-01-15T18:39:31.662Z,98904.66
2023-01-15T18:41:58.088Z,98919.56
2023-01-15T18:44:44.188Z,98919.56
2023-01-15T18:47:13.981Z,98913.44
2023-01-15T18:49:42.758Z,98923.06
2023-01-15T18:52:31.467Z,98915.19
2023-01-15T18:54:58.041Z,98920.44
2023-01-15T18:57:24.610Z,98909.91
2023-01-15T18:59:51.967Z,98923.97
2023-01-15T19:02:21.113Z,98913.44
2023-01-15T19:04:48.195Z,98936.22
2023-01-15T19:07:15.557Z,98932.69
2023-01-15T19:09:42.223Z,98930.97
2023-01-15T19:12:08.962Z,98927.44
2023-01-15T19:14:53.840Z,98930.06
2023-01-15T19:17:42.584Z,98931.81
2023-01-15T19:20:15.007Z,98930.09
2023-01-15T19:22:59.677Z,98923.09
2023-01-15T19:25:31.839Z,98930.09
2023-01-15T19:27:58.806Z,98933.59
2023-01-15T19:30:27.336Z,98933.59
2023-01-15T19:32:54.189Z,98930.94
2023-01-15T19:35:20.650Z,98932.69
2023-01-15T19:37:47.652Z,98934.47
2023-01-15T19:40:29.091Z,98927.44
2023-01-15T19:43:14.314Z,98926.56
2023-01-15T19:46:02.828Z,98933.59
2023-01-15T19:48:48.790Z,98931.81
2023-01-15T19:51:15.692Z,98930.97
2023-01-15T19:53:42.181Z,98927.44
2023-01-15T19:56:09.039Z,98934.47
2023-01-15T19:58:37.114Z,98921.31
2023-01-15T20:01:04.178Z,98928.34
2023-01-15T20:03:30.782Z,98911.69
2023-01-15T20:05:58.016Z,98950.22
2023-01-15T20:08:24.929Z,98937.09
2023-01-15T20:10:51.514Z,98939.72
2023-01-15T20:13:39.725Z,98926.56
2023-01-15T20:16:08.845Z,98931.81
2023-01-15T20:18:35.527Z,98927.44
2023-01-15T20:21:02.046Z,98941.47
2023-01-15T20:23:28.605Z,98925.66
2023-01-15T20:26:01.204Z,98930.91
2023-01-15T20:28:27.774Z,98926.50
2023-01-15T20:30:56.060Z,98929.13
2023-01-15T20:33:22.741Z,98934.41
2023-01-15T20:35:52.961Z,98923.84
2023-01-15T20:38:21.376Z,98936.13
2023-01-15T20:40:47.884Z,98933.50
2023-01-15T20:43:33.206Z,98943.13
2023-01-15T20:46:16.129Z,98933.50
2023-01-15T20:49:01.248Z,98937.00
2023-01-15T20:51:27.681Z,98936.97
2023-01-15T20:53:54.510Z,98925.59
2023-01-15T20:56:20.974Z,98936.09
2023-01-15T20:58:47.593Z,98934.34
2023-01-15T21:01:14.284Z,98931.69
2023-01-15T21:03:41.128Z,98939.56
2023-01-15T21:06:08.886Z,98941.31
2023-01-15T21:08:35.581Z,98947.41
2023-01-15T21:11:02.947Z,98942.19
2023-01-15T21:13:31.018Z,98944.81
2023-01-15T21:16:05.236Z,98941.34
2023-01-15T21:18:35.562Z,98943.06
2023-01-15T21:21:08.405Z,98956.16
2023-01-15T21:23:34.916Z,98952.66
2023-01-15T21:26:01.595Z,98959.69
2023-01-15T21:28:29.318Z,98952.66
2023-01-15T21:30:56.340Z,98949.19
2023-01-15T21:33:22.820Z,98945.72
2023-01-15T21:35:49.544Z,98936.94
2023-01-15T21:38:16.014Z,98939.59
2023-01-15T21:40:42.611Z,98935.19
2023-01-15T21:43:28.847Z,98943.09
2023-01-15T21:46:06.007Z,98939.59
2023-01-15T21:48:33.040Z,98947.47
2023-01-15T21:51:04.031Z,98938.69
2023-01-15T21:53:32.179Z,98939.53
2023-01-15T21:55:58.803Z,98947.38
2023-01-15T21:58:25.463Z,98940.31
2023-01-15T22:00:52.084Z,98933.22
2023-01-15T22:03:18.560Z,98934.91
2023-01-15T22:05:45.560Z,98930.50
2023-01-15T22:08:12.118Z,98939.22
2023-01-15T22:10:38.796Z,98928.69
2023-01-15T22:13:05.363Z,98935.66
2023-01-15T22:15:31.913Z,98936.47
2023-01-15T22:17:59.375Z,98935.59
2023-01-15T22:20:26.292Z,98934.69
2023-01-15T22:22:53.177Z,98932.91
2023-01-15T22:25:20.056Z,98937.25
2023-01-15T22:27:46.591Z,98942.50
2023-01-15T22:30:15.580Z,98945.13
2023-01-15T22:32:42.161Z,98950.44
2023-01-15T22:35:09.007Z,98942.56
2023-01-15T22:37:35.575Z,98952.22
2023-01-15T22:40:02.036Z,98953.13
2023-01-15T22:42:31.007Z,98953.13
2023-01-15T22:44:59.712Z,98943.50
2023-01-15T22:47:27.595Z,98953.13
2023-01-15T22:49:54.151Z,98951.38
2023-01-15T22:52:21.229Z,98947.03
2023-01-15T22:54:47.784Z,98939.16
2023-01-15T22:57:15.963Z,98933.91
2023-01-15T22:59:45.055Z,98919.91
2023-01-15T23:02:12.159Z,98922.53
2023-01-15T23:04:38.926Z,98921.66
2023-01-15T23:07:05.813Z,98925.16
2023-01-15T23:09:32.306Z,98911.13
2023-01-15T23:11:58.898Z,98906.69
2023-01-15T23:14:25.647Z,98905.78
2023-01-15T23:16:52.557Z,98906.63
2023-01-15T23:19:20.080Z,98902.28
2023-01-15T23:21:46.588Z,98903.16
2023-01-15T23:24:13.299Z,98904.91
2023-01-15T23:26:40.132Z,98896.19
2023-01-15T23:29:06.885Z,98898.78
2023-01-15T23:31:33.748Z,98895.25
2023-01-15T23:34:00.267Z,98896.97
2023-01-15T23:36:26.882Z,98889.09
2023-01-15T23:38:53.695Z,98896.06
2023-01-15T23:41:42.798Z,98894.34
2023-01-15T23:44:39.450Z,98890.91
2023-01-15T23:47:07.858Z,98884.81
2023-01-15T23:49:34.390Z,98871.72
2023-01-15T23:52:01.148Z,98867.38
2023-01-15T23:54:30.016Z,98863.88
2023-01-15T23:56:58.056Z,98862.13
2023-01-15T23:59:25.080Z,98866.47
